Time;durP1;ratioP1;P1;durP2;ratioP2;P2;SDS_P1;SDS_P2;PMS_P1;PMS_P2;Temp;Humidity;BMP_temperature;BMP_pressure;BME280_temperature;BME280_humidity;BME280_pressure;Samples;Min_cycle;Max_cycle;Signal;HPM_P1;HPM_P2
2021/12/09 00:01:27;;;;;;;22.60;10.70;;;;;;;4.71;100.00;-16040.26;1667654;85;21946;-70
2021/12/09 00:03:59;;;;;;;21.00;11.00;;;;;;;4.64;100.00;-15546.36;1672263;84;21536;-69
2021/12/09 00:06:28;;;;;;;21.65;11.00;;;;;;;4.57;100.00;-14888.46;1674638;85;21061;-70
2021/12/09 00:08:58;;;;;;;24.65;11.35;;;;;;;4.55;100.00;-14559.69;1671979;85;21480;-69
2021/12/09 00:11:25;;;;;;;24.77;11.03;;;;;;;4.51;100.00;-14230.57;1674205;83;21521;-69
2021/12/09 00:13:52;;;;;;;20.52;10.88;;;;;;;4.47;100.00;-13737.22;1673842;84;21082;-70
2021/12/09 00:16:19;;;;;;;27.17;12.10;;;;;;;4.39;100.00;-13079.02;1670403;84;21158;-70
2021/12/09 00:18:45;;;;;;;26.70;11.50;;;;;;;4.30;100.00;-12092.32;1673236;85;21074;-71
2021/12/09 00:21:12;;;;;;;27.82;11.53;;;;;;;4.21;100.00;-11105.46;1674495;85;21540;-71
2021/12/09 00:23:39;;;;;;;27.13;12.18;;;;;;;4.15;100.00;-10611.88;1674630;84;21112;-69
2021/12/09 00:26:07;;;;;;;21.07;10.75;;;;;;;4.10;100.00;-10447.04;1673820;84;21074;-72
2021/12/09 00:28:35;;;;;;;23.52;11.95;;;;;;;4.11;100.00;-10775.75;1672548;85;21153;-70
2021/12/09 00:31:02;;;;;;;21.37;10.58;;;;;;;4.09;100.00;-10775.58;1671800;85;22158;-71
2021/12/09 00:33:29;;;;;;;21.82;11.50;;;;;;;4.01;100.00;-9953.31;1673006;84;21081;-71
2021/12/09 00:35:58;;;;;;;22.55;11.03;;;;;;;4.03;100.00;-10282.07;1674067;83;21557;-72
2021/12/09 00:38:36;;;;;;;22.82;12.05;;;;;;;4.00;100.00;-10117.47;1671772;85;21113;-70
2021/12/09 00:41:08;;;;;;;23.05;11.55;;;;;;;3.98;100.00;-10117.32;1672740;83;21579;-70
2021/12/09 00:43:35;;;;;;;25.12;12.80;;;;;;;3.98;100.00;-10281.61;1673183;85;21591;-69
2021/12/09 00:46:03;;;;;;;23.40;11.78;;;;;;;3.98;100.00;-10610.16;1672633;85;21114;-71
2021/12/09 00:48:29;;;;;;;25.08;12.55;;;;;;;4.00;100.00;-10938.91;1671757;85;21104;-71
2021/12/09 00:50:58;;;;;;;22.17;11.22;;;;;;;3.94;100.00;-10609.74;1674200;85;21484;-71
2021/12/09 00:53:24;;;;;;;23.92;12.95;;;;;;;3.89;100.00;-10280.70;1675369;85;21143;-69
2021/12/09 00:55:51;;;;;;;25.80;13.18;;;;;;;3.87;100.00;-10116.23;1673127;85;21079;-70
2021/12/09 00:58:19;;;;;;;24.63;12.70;;;;;;;3.92;100.00;-10773.71;1674616;85;21090;-70
2021/12/09 01:00:46;;;;;;;21.25;12.45;;;;;;;3.98;100.00;-11595.63;1673082;85;21917;-69
2021/12/09 01:03:13;;;;;;;25.05;13.05;;;;;;;4.07;100.00;-12417.71;1672528;85;21177;-70
2021/12/09 01:05:40;;;;;;;25.80;13.72;;;;;;;4.14;100.00;-13075.48;1673982;84;22356;-69
2021/12/09 01:08:06;;;;;;;25.30;13.55;;;;;;;4.20;100.00;-13404.68;1676973;84;21665;-70
2021/12/09 01:10:33;;;;;;;21.10;12.45;;;;;;;4.23;100.00;-13569.32;1670943;83;21398;-69
2021/12/09 01:13:00;;;;;;;24.20;12.98;;;;;;;4.20;100.00;-13404.75;1683575;83;21047;-70
2021/12/09 01:15:29;;;;;;;23.52;12.58;;;;;;;4.25;100.00;-13241.24;1695379;82;21106;-70
2021/12/09 01:17:56;;;;;;;22.82;12.88;;;;;;;4.25;100.00;-13241.24;1688597;83;21159;-69
2021/12/09 01:20:25;;;;;;;21.70;12.25;;;;;;;4.34;100.00;-13570.96;1659079;86;21553;-69
2021/12/09 01:22:54;;;;;;;25.00;12.80;;;;;;;4.37;100.00;-13735.64;1660643;85;21088;-69
2021/12/09 01:25:22;;;;;;;20.23;12.07;;;;;;;4.40;100.00;-13736.19;1663555;85;22113;-70
2021/12/09 01:27:51;;;;;;;21.73;12.63;;;;;;;4.42;100.00;-13572.20;1668216;84;21084;-70
2021/12/09 01:30:19;;;;;;;26.05;13.65;;;;;;;4.43;100.00;-13408.12;1670491;84;21836;-70
2021/12/09 01:32:51;;;;;;;24.35;13.30;;;;;;;4.46;100.00;-13244.32;1668109;85;21609;-70
2021/12/09 01:35:22;;;;;;;24.27;13.78;;;;;;;4.51;100.00;-13409.34;1667598;84;21338;-70
2021/12/09 01:37:53;;;;;;;22.95;13.50;;;;;;;4.55;100.00;-13574.23;1669465;84;21589;-70
2021/12/09 01:40:17;;;;;;;26.95;14.15;;;;;;;4.58;100.00;-13574.61;1665303;84;21080;-70
2021/12/09 01:42:44;;;;;;;23.87;13.38;;;;;;;4.61;100.00;-13575.00;1666901;85;21053;-69
2021/12/09 01:45:11;;;;;;;23.40;13.65;;;;;;;4.58;100.00;-13246.12;1664876;84;22234;-70
2021/12/09 01:47:39;;;;;;;26.65;14.93;;;;;;;4.57;100.00;-12752.99;1666973;85;21184;-70
2021/12/09 01:50:07;;;;;;;24.47;13.13;;;;;;;4.55;100.00;-12259.74;1694120;83;20984;-70
2021/12/09 01:52:35;;;;;;;23.35;13.40;;;;;;;4.53;100.00;-11930.80;1666346;84;21106;-70
2021/12/09 01:55:02;;;;;;;30.72;15.58;;;;;;;4.54;100.00;-11931.00;1664769;85;21903;-70
2021/12/09 01:57:31;;;;;;;21.87;12.90;;;;;;;4.55;100.00;-11766.77;1698674;82;22164;-70
2021/12/09 01:59:58;;;;;;;23.57;13.25;;;;;;;4.58;100.00;-11931.51;1697163;82;21632;-70
2021/12/09 02:02:24;;;;;;;24.98;13.93;;;;;;;4.61;100.00;-11931.77;1687555;82;22173;-70
2021/12/09 02:04:51;;;;;;;23.18;13.22;;;;;;;4.62;100.00;-11931.89;1691388;82;21063;-70
2021/12/09 02:07:17;;;;;;;28.80;13.60;;;;;;;4.61;100.00;-11603.02;1695068;82;21153;-70
2021/12/09 02:09:44;;;;;;;25.15;13.83;;;;;;;4.60;100.00;-11438.57;1669332;84;22291;-70
2021/12/09 02:12:11;;;;;;;23.12;13.95;;;;;;;4.57;100.00;-11109.49;1668185;85;21134;-70
2021/12/09 02:14:42;;;;;;;26.70;14.43;;;;;;;4.56;100.00;-10944.98;1671428;85;21555;-70
2021/12/09 02:17:11;;;;;;;24.55;13.45;;;;;;;4.58;100.00;-10945.20;1670752;85;21066;-70
2021/12/09 02:19:42;;;;;;;24.70;14.70;;;;;;;4.56;100.00;-10780.57;1661878;85;22032;-70
2021/12/09 02:22:11;;;;;;;30.80;15.75;;;;;;;4.57;100.00;-10616.26;1642429;86;21109;-69
2021/12/09 02:24:38;;;;;;;25.95;13.85;;;;;;;4.58;100.00;-10616.36;1634540;87;21526;-70
2021/12/09 02:27:05;;;;;;;24.57;13.65;;;;;;;4.60;100.00;-10616.52;1639005;87;21110;-70
2021/12/09 02:29:33;;;;;;;29.18;14.38;;;;;;;4.63;100.00;-10781.22;1631492;87;45754;-70
2021/12/09 02:32:01;;;;;;;26.77;14.65;;;;;;;4.65;100.00;-10781.44;1636759;86;21550;-71
2021/12/09 02:34:28;;;;;;;30.75;15.58;;;;;;;4.70;100.00;-11110.87;1638999;86;21125;-69
2021/12/09 02:36:55;;;;;;;27.73;14.83;;;;;;;4.72;100.00;-11111.10;1632993;87;21524;-70
2021/12/09 02:39:22;;;;;;;28.27;14.78;;;;;;;4.72;100.00;-10946.66;1635181;87;21046;-70
2021/12/09 02:41:49;;;;;;;26.45;14.00;;;;;;;4.73;100.00;-10782.32;1643927;85;21069;-69
2021/12/09 02:44:18;;;;;;;26.37;14.20;;;;;;;4.71;100.00;-10288.71;1650089;85;21888;-70
2021/12/09 02:46:48;;;;;;;26.68;14.00;;;;;;;4.70;100.00;-9959.65;1647093;85;21148;-70
2021/12/09 02:49:19;;;;;;;29.37;15.58;;;;;;;4.68;100.00;-9630.52;1651634;85;21110;-70
2021/12/09 02:51:47;;;;;;;27.55;14.60;;;;;;;4.70;100.00;-9630.65;1651420;85;21306;-70
2021/12/09 02:54:16;;;;;;;27.00;15.00;;;;;;;4.69;100.00;-9466.05;1639049;86;21156;-69
2021/12/09 02:56:46;;;;;;;28.70;14.63;;;;;;;4.68;100.00;-9136.93;1639330;86;22283;-72
2021/12/09 02:59:12;;;;;;;28.47;14.58;;;;;;;4.68;100.00;-8972.40;1631176;87;21074;-70
2021/12/09 03:01:51;;;;;;;28.15;14.83;;;;;;;4.70;100.00;-9137.10;1639224;86;21320;-70
2021/12/09 03:04:12;;;;;;;32.83;15.43;;;;;;;4.73;100.00;-9301.88;1642352;87;21074;-69
2021/12/09 03:06:41;;;;;;;31.95;15.13;;;;;;;4.75;100.00;-9302.01;1638039;87;21077;-69
2021/12/09 03:09:16;;;;;;;26.00;14.87;;;;;;;4.72;100.00;-8972.72;1635015;85;21094;-69
2021/12/09 03:11:44;;;;;;;26.23;15.45;;;;;;;4.71;100.00;-8478.98;1636125;87;21062;-70
2021/12/09 03:14:11;;;;;;;26.33;14.78;;;;;;;4.70;100.00;-8478.91;1640530;87;21113;-69
2021/12/09 03:16:39;;;;;;;28.92;15.93;;;;;;;4.70;100.00;-8149.77;1637386;86;21085;-70
2021/12/09 03:19:07;;;;;;;32.40;16.70;;;;;;;4.71;100.00;-7985.27;1635648;87;21122;-70
2021/12/09 03:21:41;;;;;;;28.42;16.20;;;;;;;4.72;100.00;-7985.30;1639626;85;21742;-70
2021/12/09 03:24:12;;;;;;;31.02;16.77;;;;;;;4.73;100.00;-7985.37;1636035;86;21030;-70
2021/12/09 03:26:49;;;;;;;28.12;15.88;;;;;;;4.75;100.00;-7985.50;1634300;87;21058;-70
2021/12/09 03:29:17;;;;;;;31.42;16.25;;;;;;;4.75;100.00;-7985.46;1632351;87;21137;-69
2021/12/09 03:31:45;;;;;;;31.25;16.70;;;;;;;4.72;100.00;-7326.86;1636974;87;21106;-70
2021/12/09 03:34:13;;;;;;;30.35;16.32;;;;;;;4.71;100.00;-6832.90;1639669;87;21160;-70
2021/12/09 03:36:40;;;;;;;30.95;16.37;;;;;;;4.66;100.00;-6174.08;1636240;87;21057;-70
2021/12/09 03:39:13;;;;;;;30.23;16.37;;;;;;;4.64;100.00;-5844.67;1636221;87;21457;-69
2021/12/09 03:41:40;;;;;;;31.42;16.97;;;;;;;4.62;100.00;-5844.60;1631786;87;21121;-70
2021/12/09 03:44:06;;;;;;;31.25;16.87;;;;;;;4.62;100.00;-5844.61;1639205;87;21035;-70
2021/12/09 03:46:34;;;;;;;34.55;18.10;;;;;;;4.63;100.00;-6173.96;1635467;87;21561;-70
2021/12/09 03:49:01;;;;;;;34.53;16.82;;;;;;;4.58;100.00;-5844.52;1642134;86;21073;-70
2021/12/09 03:51:27;;;;;;;34.20;16.95;;;;;;;4.58;100.00;-5679.83;1635349;86;21082;-69
2021/12/09 03:53:54;;;;;;;31.48;15.83;;;;;;;4.53;100.00;-5185.70;1634806;87;21087;-71
2021/12/09 03:56:21;;;;;;;39.78;17.35;;;;;;;4.47;100.00;-4526.85;1637867;87;21130;-71
2021/12/09 03:58:47;;;;;;;29.00;16.42;;;;;;;4.42;100.00;-3867.99;1661590;84;21568;-70
2021/12/09 04:01:14;;;;;;;30.55;16.80;;;;;;;4.36;100.00;-3209.12;1658941;84;21102;-71
2021/12/09 04:03:41;;;;;;;32.53;16.20;;;;;;;4.35;100.00;-3373.87;1661367;84;21081;-70
2021/12/09 04:06:07;;;;;;;34.78;17.37;;;;;;;4.33;100.00;-3373.90;1659539;84;21130;-70
2021/12/09 04:08:34;;;;;;;38.58;17.27;;;;;;;4.29;100.00;-3373.94;1663649;84;21082;-70
2021/12/09 04:11:01;;;;;;;40.03;16.93;;;;;;;4.28;100.00;-3538.66;1638193;86;21158;-68
2021/12/09 04:13:30;;;;;;;34.50;17.75;;;;;;;4.23;100.00;-3044.60;1641666;86;21053;-68
2021/12/09 04:15:57;;;;;;;34.65;17.77;;;;;;;4.16;100.00;-2385.87;1635757;87;21038;-68
2021/12/09 04:18:24;;;;;;;35.03;17.62;;;;;;;4.15;100.00;-2715.34;1636716;87;21113;-69
2021/12/09 04:20:51;;;;;;;36.75;17.80;;;;;;;4.18;100.00;-3538.76;1642044;85;21091;-68
2021/12/09 04:23:17;;;;;;;36.88;18.12;;;;;;;4.19;100.00;-4197.40;1664841;85;21154;-68
2021/12/09 04:25:46;;;;;;;36.85;19.77;;;;;;;4.20;100.00;-4855.93;1690458;84;20998;-70
2021/12/09 04:28:12;;;;;;;37.03;19.30;;;;;;;4.22;100.00;-5349.77;1692582;82;21031;-69
2021/12/09 04:30:40;;;;;;;36.17;18.65;;;;;;;4.22;100.00;-5678.96;1684320;83;21603;-69
2021/12/09 04:33:07;;;;;;;34.67;18.37;;;;;;;4.24;100.00;-6337.28;1663528;85;21491;-68
2021/12/09 04:35:34;;;;;;;39.27;18.52;;;;;;;4.24;100.00;-6337.27;1664312;85;21374;-69
2021/12/09 04:38:00;;;;;;;39.70;18.02;;;;;;;4.23;100.00;-6501.77;1693555;83;21047;-69
2021/12/09 04:40:27;;;;;;;34.23;17.65;;;;;;;4.21;100.00;-6830.77;1686875;82;21051;-68
2021/12/09 04:42:54;;;;;;;37.83;18.67;;;;;;;4.21;100.00;-6995.29;1695331;83;21126;-69
2021/12/09 04:45:20;;;;;;;41.92;18.45;;;;;;;4.23;100.00;-7488.89;1694435;82;21355;-69
2021/12/09 04:47:46;;;;;;;37.88;19.12;;;;;;;4.26;100.00;-7982.48;1690950;83;21608;-68
2021/12/09 04:50:13;;;;;;;34.18;17.67;;;;;;;4.29;100.00;-8476.12;1689669;82;21090;-69
2021/12/09 04:52:40;;;;;;;41.83;18.90;;;;;;;4.30;100.00;-8640.65;1699198;83;21042;-68
2021/12/09 04:55:08;;;;;;;39.65;19.25;;;;;;;4.33;100.00;-9134.13;1695811;82;21040;-69
2021/12/09 04:57:35;;;;;;;38.02;18.65;;;;;;;4.36;100.00;-9627.71;1692177;82;21678;-69
2021/12/09 05:00:03;;;;;;;43.15;20.57;;;;;;;4.39;100.00;-10121.18;1695047;83;21160;-68
2021/12/09 05:02:46;;;;;;;43.55;19.48;;;;;;;4.42;100.00;-10450.27;1701154;82;21142;-68
2021/12/09 05:04:59;;;;;;;36.20;18.77;;;;;;;4.41;100.00;-10614.55;1699795;82;21008;-69
2021/12/09 05:07:26;;;;;;;37.95;19.30;;;;;;;4.40;100.00;-10614.50;1692643;83;21063;-69
2021/12/09 05:09:53;;;;;;;37.25;19.23;;;;;;;4.40;100.00;-10778.82;1658047;86;21108;-70
2021/12/09 05:12:21;;;;;;;41.95;19.82;;;;;;;4.41;100.00;-10943.29;1657073;84;21869;-69
2021/12/09 05:14:48;;;;;;;44.30;21.82;;;;;;;4.45;100.00;-11436.83;1696384;82;21047;-70
2021/12/09 05:17:16;;;;;;;48.68;22.95;;;;;;;4.49;100.00;-11930.29;1690790;83;21305;-69
2021/12/09 05:19:43;;;;;;;48.33;21.70;;;;;;;4.51;100.00;-12259.27;1690203;82;21071;-69
2021/12/09 05:22:10;;;;;;;47.50;21.02;;;;;;;4.51;100.00;-12423.59;1686351;83;21079;-69
2021/12/09 05:24:37;;;;;;;47.33;20.20;;;;;;;4.50;100.00;-12259.14;1649900;85;21098;-69
2021/12/09 05:27:06;;;;;;;44.50;20.85;;;;;;;4.52;100.00;-12423.73;1648846;85;21126;-63
2021/12/09 05:29:38;;;;;;;42.73;20.80;;;;;;;4.54;100.00;-12752.64;1661532;84;21059;-68
2021/12/09 05:32:16;;;;;;;50.95;21.70;;;;;;;4.55;100.00;-12917.08;1664965;84;21070;-70
2021/12/09 05:34:45;;;;;;;44.18;20.20;;;;;;;4.56;100.00;-12917.16;1657954;84;21076;-68
2021/12/09 05:37:20;;;;;;;45.58;20.52;;;;;;;4.53;100.00;-12423.87;1658043;84;21500;-63
2021/12/09 05:39:48;;;;;;;44.53;21.00;;;;;;;4.49;100.00;-12094.68;1662162;84;21082;-63
2021/12/09 05:42:17;;;;;;;47.53;20.92;;;;;;;4.47;100.00;-11765.76;1665319;84;21159;-63
2021/12/09 05:44:44;;;;;;;47.60;21.05;;;;;;;4.45;100.00;-11601.17;1663839;84;21083;-63
2021/12/09 05:47:12;;;;;;;45.12;20.08;;;;;;;4.47;100.00;-11601.42;1665920;84;21066;-62
2021/12/09 05:49:43;;;;;;;45.40;20.43;;;;;;;4.49;100.00;-11437.31;1663742;84;21143;-63
2021/12/09 05:52:09;;;;;;;49.93;20.55;;;;;;;4.49;100.00;-11272.94;1656420;84;20990;-62
2021/12/09 05:54:36;;;;;;;46.42;21.25;;;;;;;4.51;100.00;-11273.18;1662611;84;21067;-63
2021/12/09 05:57:05;;;;;;;44.00;20.32;;;;;;;4.49;100.00;-10944.19;1662744;84;21130;-62
2021/12/09 05:59:32;;;;;;;47.62;21.25;;;;;;;4.49;100.00;-10615.40;1658990;84;21119;-64
2021/12/09 06:01:59;;;;;;;47.08;21.27;;;;;;;4.47;100.00;-10121.96;1662225;84;21865;-63
2021/12/09 06:04:25;;;;;;;43.50;19.98;;;;;;;4.48;100.00;-9957.63;1661911;84;21131;-63
2021/12/09 06:06:52;;;;;;;47.65;21.55;;;;;;;4.49;100.00;-9628.80;1650716;85;21092;-63
2021/12/09 06:09:19;;;;;;;49.00;21.40;;;;;;;4.45;100.00;-8970.65;1658903;84;21723;-62
2021/12/09 06:11:50;;;;;;;50.23;20.77;;;;;;;4.43;100.00;-8312.55;1660731;85;21123;-63
2021/12/09 06:14:17;;;;;;;45.92;20.45;;;;;;;4.40;100.00;-7818.86;1680945;83;21161;-63
2021/12/09 06:16:45;;;;;;;42.48;19.77;;;;;;;4.40;100.00;-7325.23;1640891;84;21145;-63
2021/12/09 06:19:12;;;;;;;42.90;19.95;;;;;;;4.39;100.00;-6666.98;1658573;85;21106;-62
2021/12/09 06:21:39;;;;;;;41.70;19.23;;;;;;;4.41;100.00;-6502.45;1636153;85;21565;-63
2021/12/09 06:24:05;;;;;;;42.93;20.27;;;;;;;4.44;100.00;-6337.97;1649246;86;21114;-64
2021/12/09 06:26:33;;;;;;;48.20;22.02;;;;;;;4.46;100.00;-5844.18;1648372;85;21145;-63
2021/12/09 06:29:00;;;;;;;47.23;20.43;;;;;;;4.47;100.00;-5185.59;1673210;84;21559;-63
2021/12/09 06:31:27;;;;;;;47.83;21.48;;;;;;;4.47;100.00;-4526.85;1632799;87;22547;-63
2021/12/09 06:33:54;;;;;;;39.65;20.72;;;;;;;4.49;100.00;-3867.96;1631221;86;21783;-64
2021/12/09 06:36:20;;;;;;;46.58;20.92;;;;;;;4.50;100.00;-3208.91;1633114;87;21083;-64
2021/12/09 06:38:47;;;;;;;43.02;20.88;;;;;;;4.54;100.00;-2714.44;1632581;87;21192;-63
2021/12/09 06:41:14;;;;;;;41.92;20.70;;;;;;;4.57;100.00;-2219.89;1645859;85;21046;-64
2021/12/09 06:43:40;;;;;;;40.90;18.57;;;;;;;4.57;100.00;-1230.64;1639445;85;21073;-63
2021/12/09 06:46:09;;;;;;;37.83;18.48;;;;;;;4.56;100.00;88.73;1650813;85;21118;-63
2021/12/09 06:48:36;;;;;;;40.40;19.65;;;;;;;4.54;100.00;2563.84;1652858;85;21033;-62
2021/12/09 06:51:04;;;;;;;40.73;19.42;;;;;;;4.54;100.00;4215.05;1654789;84;21081;-63
2021/12/09 06:53:31;;;;;;;36.90;18.00;;;;;;;4.55;100.00;5702.01;1653976;85;21134;-63
2021/12/09 06:55:57;;;;;;;38.00;19.12;;;;;;;4.56;100.00;7355.01;1651818;85;21098;-64
2021/12/09 06:58:25;;;;;;;44.10;21.07;;;;;;;4.63;100.00;8182.96;1651114;85;21654;-63
2021/12/09 07:00:54;;;;;;;41.60;19.10;;;;;;;4.70;100.00;8846.07;1652911;85;21104;-63
2021/12/09 07:03:21;;;;;;;43.25;18.82;;;;;;;4.74;100.00;11163.99;1653629;85;21676;-62
2021/12/09 07:05:51;;;;;;;39.80;19.32;;;;;;;4.79;100.00;13318.46;1653825;85;21065;-63
2021/12/09 07:08:18;;;;;;;38.10;19.55;;;;;;;4.85;100.00;15309.21;1653382;85;21173;-63
2021/12/09 07:10:45;;;;;;;35.58;18.52;;;;;;;4.90;100.00;17964.73;1652047;85;21408;-66
2021/12/09 07:13:12;;;;;;;34.92;18.35;;;;;;;4.94;100.00;20456.28;1669076;84;21073;-64
2021/12/09 07:15:40;;;;;;;40.52;18.92;;;;;;;4.97;100.00;23614.92;1668264;84;21556;-61
2021/12/09 07:18:07;;;;;;;38.45;18.50;;;;;;;5.02;100.00;25612.72;1648977;85;21058;-62
2021/12/09 07:20:35;;;;;;;37.10;18.55;;;;;;;5.06;100.00;28776.97;1646188;85;21078;-62
2021/12/09 07:23:02;;;;;;;34.13;17.80;;;;;;;5.07;100.00;33610.71;1666702;84;21277;-62
2021/12/09 07:25:29;;;;;;;32.83;18.27;;;;;;;5.11;100.00;43467.55;1661731;84;21714;-62
2021/12/09 07:27:56;;;;;;;37.05;18.80;;;;;;;5.11;100.00;43467.55;1661498;84;21500;-62
2021/12/09 07:30:24;;;;;;;36.75;18.95;;;;;;;5.13;100.00;46816.79;1660535;85;21738;-62
2021/12/09 07:32:51;;;;;;;39.03;18.70;;;;;;;5.16;100.00;51175.52;1659946;84;21079;-62
2021/12/09 07:35:18;;;;;;;34.03;17.30;;;;;;;5.19;100.00;56379.78;1656062;86;21080;-62
2021/12/09 07:37:46;;;;;;;33.48;17.02;;;;;;;5.21;100.00;60480.45;1670586;84;21069;-64
2021/12/09 07:40:16;;;;;;;37.83;18.23;;;;;;;5.26;100.00;62101.77;1680877;83;21115;-63
2021/12/09 07:42:43;;;;;;;36.55;18.37;;;;;;;5.27;100.00;69007.70;1680877;84;21231;-64
2021/12/09 07:45:11;;;;;;;32.73;17.20;;;;;;;5.29;100.00;74746.88;1680606;84;21548;-63
2021/12/09 07:47:38;;;;;;;32.23;16.50;;;;;;;5.36;100.00;88632.98;1658702;85;21590;-63
2021/12/09 07:50:07;;;;;;;33.33;17.35;;;;;;;5.40;100.00;95428.34;1657836;84;21096;-64
2021/12/09 07:52:35;;;;;;;34.13;18.35;;;;;;;5.40;100.00;95428.34;1680235;84;21108;-62
2021/12/09 07:55:03;;;;;;;38.78;19.98;;;;;;;5.45;100.00;104796.27;1664814;84;21142;-63
2021/12/09 07:57:33;;;;;;;37.78;18.98;;;;;;;5.52;100.00;110264.45;1666810;84;21123;-63
2021/12/09 08:00:00;;;;;;;35.10;18.23;;;;;;;5.58;100.00;114545.80;1667660;84;21662;-64
2021/12/09 08:02:27;;;;;;;39.85;18.60;;;;;;;5.58;100.00;122416.96;1666910;84;21066;-63
2021/12/09 08:04:54;;;;;;;36.17;17.50;;;;;;;5.64;100.00;133065.14;1666353;84;22108;-64
2021/12/09 08:07:21;;;;;;;35.08;17.12;;;;;;;5.62;100.00;148228.02;1667935;84;21160;-63
2021/12/09 08:09:48;;;;;;;34.10;17.17;;;;;;;5.59;100.00;149066.88;1663651;84;21091;-63
2021/12/09 08:12:15;;;;;;;36.03;17.87;;;;;;;5.61;100.00;149070.72;1665522;84;21577;-63
2021/12/09 08:14:43;;;;;;;36.75;18.05;;;;;;;5.65;100.00;149081.09;1663204;84;21102;-64
2021/12/09 08:17:33;;;;;;;33.55;16.55;;;;;;;5.63;100.00;149075.89;1678147;83;22187;-63
2021/12/09 08:19:39;;;;;;;37.95;18.12;;;;;;;5.61;100.00;149070.72;1643344;84;21146;-64
2021/12/09 08:22:06;;;;;;;33.40;17.65;;;;;;;5.56;100.00;149059.12;1665182;84;21748;-62
2021/12/09 08:24:33;;;;;;;36.23;17.07;;;;;;;5.57;100.00;149060.39;1677872;84;21785;-64
2021/12/09 08:27:00;;;;;;;35.85;16.70;;;;;;;5.57;100.00;149060.39;1675394;84;21165;-62
2021/12/09 08:29:27;;;;;;;39.27;16.65;;;;;;;5.57;100.00;149060.39;1676891;84;21561;-64
2021/12/09 08:31:55;;;;;;;36.03;17.35;;;;;;;5.57;100.00;149060.39;1676225;84;21071;-62
2021/12/09 08:34:21;;;;;;;36.55;17.50;;;;;;;5.60;100.00;149068.13;1676643;84;21639;-63
2021/12/09 08:36:50;;;;;;;37.45;18.77;;;;;;;5.60;100.00;149068.13;1675121;84;21115;-69
2021/12/09 08:39:17;;;;;;;37.15;17.32;;;;;;;5.65;100.00;149079.78;1678406;84;21505;-72
2021/12/09 08:41:44;;;;;;;33.48;16.45;;;;;;;5.69;100.00;149091.44;1681194;84;21205;-70
2021/12/09 08:44:11;;;;;;;33.25;16.90;;;;;;;5.74;100.00;149104.34;1678967;84;21107;-70
2021/12/09 08:46:38;;;;;;;36.15;16.85;;;;;;;5.78;100.00;149112.11;1677356;84;21106;-70
2021/12/09 08:49:04;;;;;;;39.27;18.62;;;;;;;5.78;100.00;149112.11;1680318;84;21102;-70
2021/12/09 08:51:32;;;;;;;35.78;17.17;;;;;;;5.82;100.00;149122.44;1697426;82;21318;-69
2021/12/09 08:53:59;;;;;;;35.75;17.50;;;;;;;5.86;100.00;149132.81;1702203;82;21107;-70
2021/12/09 08:56:26;;;;;;;30.32;16.80;;;;;;;5.91;100.00;149145.75;1700625;82;21161;-70
2021/12/09 08:58:53;;;;;;;33.25;16.05;;;;;;;5.98;100.00;149162.56;1697434;82;21089;-71
2021/12/09 09:01:20;;;;;;;29.72;15.78;;;;;;;6.01;100.00;149171.63;1697300;82;21154;-71
2021/12/09 09:03:46;;;;;;;29.30;15.18;;;;;;;6.01;100.00;149171.63;1662031;84;21127;-70
2021/12/09 09:06:13;;;;;;;30.60;16.12;;;;;;;6.04;100.00;149176.80;1665096;84;21131;-71
2021/12/09 09:08:40;;;;;;;33.30;16.20;;;;;;;6.08;100.00;149187.14;1697131;82;21132;-63
2021/12/09 09:11:07;;;;;;;30.45;15.60;;;;;;;6.12;100.00;149197.53;1677457;84;21540;-65
2021/12/09 09:13:35;;;;;;;30.02;15.30;;;;;;;6.13;100.00;149200.11;1676373;84;21546;-62
2021/12/09 09:16:03;;;;;;;32.70;16.05;;;;;;;6.15;100.00;149205.28;1675400;84;21156;-69
2021/12/09 09:18:30;;;;;;;27.55;15.50;;;;;;;6.10;100.00;149192.36;1673938;84;21872;-69
2021/12/09 09:20:57;;;;;;;27.75;15.70;;;;;;;6.13;100.00;149200.11;1698774;82;21841;-69
2021/12/09 09:23:25;;;;;;;29.50;15.85;;;;;;;6.16;100.00;149207.86;1666403;84;21637;-66
2021/12/09 09:25:53;;;;;;;29.95;16.60;;;;;;;6.21;100.00;149220.78;1658914;84;21339;-70
2021/12/09 09:28:19;;;;;;;30.20;16.48;;;;;;;6.25;100.00;149231.13;1677097;84;21063;-66
2021/12/09 09:30:53;;;;;;;30.75;15.63;;;;;;;6.32;100.00;149247.94;1671074;84;21606;-64
2021/12/09 09:33:18;;;;;;;31.97;16.67;;;;;;;6.32;100.00;149247.94;1677854;83;21146;-68
2021/12/09 09:35:44;;;;;;;29.12;15.55;;;;;;;6.37;100.00;149259.59;1676060;84;21119;-64
2021/12/09 09:38:12;;;;;;;30.97;16.30;;;;;;;6.43;100.00;149275.11;1675667;83;21565;-68
2021/12/09 09:41:10;;;;;;;30.02;16.42;;;;;;;6.48;100.00;149286.77;1680156;83;21135;-70
2021/12/09 09:46:19;;;;;;;33.63;17.07;;;;;;;6.56;100.00;149308.77;1662651;85;21081;-66
2021/12/09 09:48:50;;;;;;;34.43;18.35;;;;;;;6.59;100.00;149316.53;1665609;84;20924;-64
2021/12/09 09:51:18;;;;;;;36.77;18.35;;;;;;;6.63;100.00;149324.28;1666870;84;21547;-66
2021/12/09 09:53:45;;;;;;;34.35;17.23;;;;;;;6.68;100.00;149337.20;1665222;84;21738;-65
2021/12/09 09:56:17;;;;;;;38.53;17.35;;;;;;;6.74;100.00;149352.72;1664404;84;21548;-65
2021/12/09 09:58:49;;;;;;;35.73;17.20;;;;;;;6.76;100.00;149356.63;1668766;84;21107;-65
2021/12/09 10:01:16;;;;;;;33.78;17.02;;;;;;;6.79;100.00;149365.69;1665117;84;21092;-66
2021/12/09 10:03:47;;;;;;;29.37;15.50;;;;;;;6.85;100.00;149381.22;1661533;85;21281;-66
2021/12/09 10:06:16;;;;;;;30.32;15.43;;;;;;;6.88;100.00;149388.97;1675338;83;21479;-65
2021/12/09 10:08:44;;;;;;;36.98;17.23;;;;;;;6.95;100.00;149404.48;1668791;84;21143;-65
2021/12/09 10:11:12;;;;;;;33.08;17.02;;;;;;;7.00;100.00;149417.47;1666766;84;21000;-64
2021/12/09 10:13:41;;;;;;;29.63;16.12;;;;;;;7.02;100.00;149422.64;1665026;84;21065;-65
2021/12/09 10:16:22;;;;;;;32.30;16.67;;;;;;;7.03;100.00;149426.50;1665729;84;21134;-65
2021/12/09 10:18:52;;;;;;;34.18;16.82;;;;;;;7.03;100.00;149426.50;1665433;84;21084;-66
2021/12/09 10:21:26;;;;;;;35.50;17.55;;;;;;;7.04;100.00;149427.81;1669135;84;21166;-64
2021/12/09 10:24:05;;;;;;;35.70;17.82;;;;;;;7.03;100.00;149425.22;1672547;83;21114;-67
2021/12/09 10:26:38;;;;;;;34.45;17.07;;;;;;;7.00;100.00;149418.73;1675380;83;21030;-64
2021/12/09 10:29:27;;;;;;;33.63;17.30;;;;;;;6.97;100.00;149410.97;1673206;83;21054;-63
2021/12/09 10:31:58;;;;;;;47.55;22.02;;;;;;;6.99;100.00;149414.88;1669949;83;21409;-63
2021/12/09 10:34:37;;;;;;;36.03;17.42;;;;;;;7.00;100.00;149418.73;1674653;83;21159;-63
2021/12/09 10:37:13;;;;;;;40.63;18.15;;;;;;;6.99;100.00;149414.88;1674273;83;21097;-61
2021/12/09 10:40:06;;;;;;;31.35;16.35;;;;;;;7.02;100.00;149422.64;1675281;83;21469;-63
2021/12/09 10:42:40;;;;;;;37.40;16.97;;;;;;;7.02;100.00;149422.64;1676788;83;22341;-60
2021/12/09 10:45:13;;;;;;;;;;;;;;;7.03;100.00;149425.22;1692358;83;22405;-63
2021/12/09 10:47:56;;;;;;;39.08;18.32;;;;;;;6.99;100.00;149416.16;1694475;82;21139;-64
2021/12/09 10:50:58;;;;;;;34.92;17.50;;;;;;;6.96;100.00;149407.08;1651427;84;21660;-62
2021/12/09 10:55:59;;;;;;;;;;;;;;;6.98;100.00;149413.56;1700931;82;21143;-63
2021/12/09 10:58:29;;;;;;;37.98;18.65;;;;;;;7.00;100.00;149417.47;1696863;82;20237;-65
2021/12/09 11:01:04;;;;;;;35.58;17.95;;;;;;;7.01;100.00;149420.05;1670339;84;22515;-63
2021/12/09 11:03:49;;;;;;;38.28;17.60;;;;;;;7.00;100.00;149417.47;1698367;82;21149;-64
2021/12/09 11:06:23;;;;;;;37.95;18.40;;;;;;;6.99;100.00;149414.88;1694094;82;21108;-62
2021/12/09 11:08:53;;;;;;;31.27;16.73;;;;;;;6.99;100.00;149416.16;1672457;84;21058;-64
2021/12/09 11:11:33;;;;;;;33.08;17.23;;;;;;;6.97;100.00;149409.70;1697478;82;21646;-64
2021/12/09 11:14:13;;;;;;;32.90;16.55;;;;;;;6.93;100.00;149399.31;1670763;84;21491;-63
2021/12/09 11:16:39;;;;;;;32.93;16.50;;;;;;;6.93;100.00;149399.31;1669665;84;21591;-63
2021/12/09 11:19:34;;;;;;;35.00;17.23;;;;;;;6.92;100.00;149396.73;1670714;84;20933;-64
2021/12/09 11:21:58;;;;;;;32.08;17.25;;;;;;;6.88;100.00;149388.97;1666085;84;21142;-63
2021/12/09 11:24:38;;;;;;;32.48;17.55;;;;;;;6.86;100.00;149383.80;1677154;82;21139;-62